createdAt,value
2022-09-16T00:00:21.955Z,13.61
2022-09-16T00:01:22.032Z,13.61
2022-09-16T00:02:21.966Z,13.63
2022-09-16T00:03:21.928Z,13.65
2022-09-16T00:04:21.905Z,13.62
2022-09-16T00:05:21.906Z,13.61
2022-09-16T00:06:21.885Z,13.62
2022-09-16T00:07:21.869Z,13.62
2022-09-16T00:08:21.866Z,13.63
2022-09-16T00:09:22.827Z,13.65
2022-09-16T00:10:21.818Z,13.65
2022-09-16T00:11:21.818Z,13.70
2022-09-16T00:12:21.806Z,13.67
2022-09-16T00:13:21.785Z,13.65
2022-09-16T00:14:21.767Z,13.67
2022-09-16T00:15:21.747Z,13.67
2022-09-16T00:16:21.808Z,13.67
2022-09-16T00:17:21.747Z,13.67
2022-09-16T00:18:21.720Z,13.67
2022-09-16T00:19:22.689Z,13.67
2022-09-16T00:20:21.705Z,13.67
2022-09-16T00:21:21.686Z,13.67
2022-09-16T00:22:21.678Z,13.67
2022-09-16T00:23:21.652Z,13.70
2022-09-16T00:24:21.637Z,13.70
2022-09-16T00:25:21.608Z,13.69
2022-09-16T00:26:21.632Z,13.67
2022-09-16T00:27:21.597Z,13.67
2022-09-16T00:28:21.593Z,13.67
2022-09-16T00:29:21.569Z,13.69
2022-09-16T00:30:22.570Z,13.65
2022-09-16T00:31:21.590Z,13.67
2022-09-16T00:32:21.554Z,13.65
2022-09-16T00:33:21.510Z,13.65
2022-09-16T00:34:21.512Z,13.63
2022-09-16T00:35:21.492Z,13.61
2022-09-16T00:36:21.489Z,13.58
2022-09-16T00:37:21.472Z,13.59
2022-09-16T00:38:21.452Z,13.58
2022-09-16T00:39:21.436Z,13.58
2022-09-16T00:40:21.483Z,13.58
2022-09-16T00:41:21.440Z,13.56
2022-09-16T00:42:21.410Z,13.56
2022-09-16T00:43:21.394Z,13.56
2022-09-16T00:44:21.378Z,13.54
2022-09-16T00:45:21.361Z,13.51
2022-09-16T00:46:21.454Z,13.51
2022-09-16T00:47:21.341Z,13.52
2022-09-16T00:48:21.340Z,13.55
2022-09-16T00:49:21.312Z,13.54
2022-09-16T00:50:21.303Z,13.54
2022-09-16T00:51:21.292Z,13.51
2022-09-16T00:52:21.304Z,13.49
2022-09-16T00:53:21.293Z,13.47
2022-09-16T00:54:21.254Z,13.44
2022-09-16T00:55:21.255Z,13.40
2022-09-16T00:56:21.223Z,13.37
2022-09-16T00:57:21.211Z,13.36
2022-09-16T00:58:21.207Z,13.33
2022-09-16T00:59:21.199Z,13.33
2022-09-16T01:00:21.175Z,13.36
2022-09-16T01:01:21.229Z,13.36
2022-09-16T01:02:21.240Z,13.38
2022-09-16T01:03:21.123Z,13.40
2022-09-16T01:04:21.126Z,13.40
2022-09-16T01:05:21.138Z,13.40
2022-09-16T01:06:21.111Z,13.40
2022-09-16T01:07:21.075Z,13.36
2022-09-16T01:08:21.066Z,13.33
2022-09-16T01:09:21.039Z,13.33
2022-09-16T01:10:21.046Z,13.29
2022-09-16T01:11:21.047Z,13.25
2022-09-16T01:12:21.014Z,13.24
2022-09-16T01:13:20.986Z,13.20
2022-09-16T01:14:20.994Z,13.21
2022-09-16T01:15:20.969Z,13.17
2022-09-16T01:16:22.136Z,13.15
2022-09-16T01:17:20.955Z,13.14
2022-09-16T01:18:20.928Z,13.14
2022-09-16T01:19:20.930Z,13.11
2022-09-16T01:20:20.905Z,13.09
2022-09-16T01:21:20.899Z,13.09
2022-09-16T01:22:20.918Z,13.09
2022-09-16T01:23:20.858Z,13.07
2022-09-16T01:24:20.862Z,13.04
2022-09-16T01:25:20.839Z,13.04
2022-09-16T01:26:21.818Z,13.04
2022-09-16T01:27:20.830Z,13.07
2022-09-16T01:28:20.809Z,13.07
2022-09-16T01:29:20.789Z,13.09
2022-09-16T01:30:20.778Z,13.09
2022-09-16T01:31:20.819Z,13.09
2022-09-16T01:32:20.760Z,13.09
2022-09-16T01:33:20.743Z,13.07
2022-09-16T01:34:20.732Z,13.07
2022-09-16T01:35:22.761Z,13.07
2022-09-16T01:36:20.708Z,13.07
2022-09-16T01:37:20.680Z,13.09
2022-09-16T01:38:20.684Z,13.06
2022-09-16T01:39:20.651Z,13.09
2022-09-16T01:40:20.689Z,13.09
2022-09-16T01:41:20.639Z,13.12
2022-09-16T01:42:20.646Z,13.15
2022-09-16T01:43:20.601Z,13.20
2022-09-16T01:44:20.609Z,13.24
2022-09-16T01:45:20.580Z,13.27
2022-09-16T01:46:20.695Z,13.30
2022-09-16T01:47:20.543Z,13.33
2022-09-16T01:48:20.551Z,13.37
2022-09-16T01:49:20.523Z,13.36
2022-09-16T01:50:20.513Z,13.41
2022-09-16T01:51:20.522Z,13.44
2022-09-16T01:52:21.483Z,13.47
2022-09-16T01:53:20.463Z,13.49
2022-09-16T01:54:20.473Z,13.44
2022-09-16T01:55:20.442Z,13.44
2022-09-16T01:56:20.423Z,13.47
2022-09-16T01:57:20.424Z,13.46
2022-09-16T01:58:20.415Z,13.47
2022-09-16T01:59:20.383Z,13.49
2022-09-16T02:00:20.379Z,13.51
2022-09-16T02:01:21.417Z,13.51
2022-09-16T02:02:21.462Z,13.51
2022-09-16T02:03:20.345Z,13.51
2022-09-16T02:04:20.334Z,13.47
2022-09-16T02:05:21.304Z,13.49
2022-09-16T02:06:20.317Z,13.47
2022-09-16T02:07:20.301Z,13.49
2022-09-16T02:08:20.275Z,13.47
2022-09-16T02:09:20.259Z,13.46
2022-09-16T02:10:20.246Z,13.43
2022-09-16T02:11:20.236Z,13.43
2022-09-16T02:12:20.235Z,13.38
2022-09-16T02:13:20.207Z,13.33
2022-09-16T02:14:20.209Z,13.29
2022-09-16T02:15:20.190Z,13.29
2022-09-16T02:16:20.321Z,13.29
2022-09-16T02:17:20.202Z,13.30
2022-09-16T02:18:20.195Z,13.30
2022-09-16T02:19:20.188Z,13.29
2022-09-16T02:21:30.349Z,13.30
2022-09-16T02:22:30.343Z,13.30
2022-09-16T02:23:30.358Z,13.30
2022-09-16T02:24:30.369Z,13.29
2022-09-16T02:25:52.390Z,13.33
2022-09-16T02:26:30.293Z,13.32
2022-09-16T02:27:30.281Z,13.33
2022-09-16T02:28:30.292Z,13.32
2022-09-16T02:29:30.231Z,13.30
2022-09-16T02:30:30.303Z,13.33
2022-09-16T02:31:30.307Z,13.36
2022-09-16T02:32:30.231Z,13.37
2022-09-16T02:33:30.222Z,13.38
2022-09-16T02:34:30.162Z,13.38
2022-09-16T02:35:30.142Z,13.41
2022-09-16T02:36:30.179Z,13.43
2022-09-16T02:37:30.147Z,13.40
2022-09-16T02:38:30.111Z,13.41
2022-09-16T02:39:30.153Z,13.41
2022-09-16T02:40:30.181Z,13.40
2022-09-16T02:41:30.083Z,13.40
2022-09-16T02:42:30.073Z,13.41
2022-09-16T02:43:30.058Z,13.41
2022-09-16T02:44:30.083Z,13.43
2022-09-16T02:45:30.091Z,13.43
2022-09-16T02:46:30.069Z,13.43
2022-09-16T02:47:30.001Z,13.44
2022-09-16T02:48:30.023Z,13.49
2022-09-16T02:49:30.029Z,13.47
2022-09-16T02:50:30.034Z,13.46
2022-09-16T02:51:30.064Z,13.46
2022-09-16T02:52:30.035Z,13.43
2022-09-16T02:53:29.956Z,13.43
2022-09-16T02:54:29.915Z,13.40
2022-09-16T02:55:29.957Z,13.38
2022-09-16T02:56:29.903Z,13.37
2022-09-16T02:57:29.970Z,13.36
2022-09-16T02:58:29.873Z,13.36
2022-09-16T02:59:29.880Z,13.36
2022-09-16T03:00:29.843Z,13.36
2022-09-16T03:01:29.980Z,13.37
2022-09-16T03:02:29.852Z,13.36
2022-09-16T03:03:29.806Z,13.33
2022-09-16T03:04:29.825Z,13.30
2022-09-16T03:05:30.844Z,13.30
2022-09-16T03:06:29.768Z,13.29
2022-09-16T03:07:29.768Z,13.29
2022-09-16T03:08:29.753Z,13.30
2022-09-16T03:09:29.758Z,13.29
2022-09-16T03:10:29.747Z,13.27
2022-09-16T03:11:30.559Z,13.29
2022-09-16T03:12:29.705Z,13.29
2022-09-16T03:13:29.658Z,13.30
2022-09-16T03:14:29.665Z,13.32
2022-09-16T03:15:29.638Z,13.32
2022-09-16T03:16:29.708Z,13.33
2022-09-16T03:17:29.616Z,13.33
2022-09-16T03:18:29.709Z,13.32
2022-09-16T03:19:29.576Z,13.33
2022-09-16T03:20:29.620Z,13.33
2022-09-16T03:21:29.564Z,13.33
2022-09-16T03:22:29.671Z,13.32
2022-09-16T03:23:29.529Z,13.30
2022-09-16T03:24:29.549Z,13.30
2022-09-16T03:25:29.512Z,13.27
2022-09-16T03:26:29.562Z,13.24
2022-09-16T03:27:29.502Z,13.21
2022-09-16T03:28:29.571Z,13.18
2022-09-16T03:29:29.478Z,13.17
2022-09-16T03:30:29.451Z,13.15
2022-09-16T03:31:29.555Z,13.15
2022-09-16T03:32:29.432Z,13.15
2022-09-16T03:33:33.169Z,13.17
2022-09-16T03:34:30.500Z,13.18
2022-09-16T03:35:29.437Z,13.17
2022-09-16T03:36:29.464Z,13.17
2022-09-16T03:37:29.485Z,13.17
2022-09-16T03:38:29.347Z,13.18
2022-09-16T03:39:29.347Z,13.17
2022-09-16T03:40:29.392Z,13.18
2022-09-16T03:41:29.306Z,13.17
2022-09-16T03:42:29.317Z,13.20
2022-09-16T03:43:29.378Z,13.20
2022-09-16T03:44:29.274Z,13.21
2022-09-16T03:45:29.278Z,13.21
2022-09-16T03:46:29.334Z,13.17
2022-09-16T03:47:29.244Z,13.17
2022-09-16T03:48:29.233Z,13.15
2022-09-16T03:49:29.192Z,13.14
2022-09-16T04:03:24.365Z,13.02
2022-09-16T04:04:24.300Z,13.02
2022-09-16T04:05:24.270Z,13.04
2022-09-16T04:06:26.304Z,13.03
2022-09-16T04:07:24.259Z,13.00
2022-09-16T04:08:24.249Z,12.99
2022-09-16T04:09:24.231Z,12.99
2022-09-16T04:10:24.219Z,13.00
2022-09-16T04:11:24.198Z,13.02
2022-09-16T04:12:24.219Z,13.02
2022-09-16T04:13:24.180Z,13.00
2022-09-16T04:14:24.161Z,13.02
2022-09-16T04:15:24.135Z,13.00
2022-09-16T04:16:24.179Z,13.02
2022-09-16T04:17:24.165Z,13.02
2022-09-16T04:18:24.113Z,13.02
2022-09-16T04:19:24.082Z,13.00
2022-09-16T04:20:24.101Z,13.00
2022-09-16T04:21:24.075Z,13.00
2022-09-16T04:22:24.085Z,13.02
2022-09-16T04:23:24.044Z,13.02
2022-09-16T04:24:24.031Z,13.02
2022-09-16T04:25:24.014Z,13.00
2022-09-16T04:26:24.010Z,12.99
2022-09-16T04:27:24.145Z,12.99
2022-09-16T04:28:23.984Z,12.99
2022-09-16T04:29:23.963Z,12.99
2022-09-16T04:30:23.946Z,13.00
2022-09-16T04:31:24.013Z,12.96
2022-09-16T04:32:23.951Z,12.97
2022-09-16T04:33:23.925Z,12.96
2022-09-16T04:34:23.888Z,12.95
2022-09-16T04:35:23.895Z,12.95
2022-09-16T04:36:23.886Z,12.93
2022-09-16T04:37:23.899Z,12.93
2022-09-16T04:38:23.854Z,12.95
2022-09-16T04:39:23.846Z,12.96
2022-09-16T04:40:23.906Z,12.96
2022-09-16T04:41:23.799Z,12.97
2022-09-16T04:42:23.822Z,12.97
2022-09-16T04:43:23.776Z,12.96
2022-09-16T04:44:23.767Z,12.95
2022-09-16T04:45:23.748Z,12.93
2022-09-16T04:46:23.834Z,12.95
2022-09-16T04:47:24.718Z,12.95
2022-09-16T04:48:23.716Z,12.96
2022-09-16T04:49:23.703Z,12.96
2022-09-16T04:50:23.677Z,12.96
2022-09-16T04:51:23.678Z,12.96
2022-09-16T04:52:24.668Z,12.92
2022-09-16T04:53:23.677Z,12.89
2022-09-16T04:54:23.650Z,12.92
2022-09-16T04:55:23.643Z,12.92
2022-09-16T04:56:23.620Z,12.89
2022-09-16T04:57:23.589Z,12.89
2022-09-16T04:58:23.607Z,12.92
2022-09-16T04:59:23.597Z,12.92
2022-09-16T05:00:23.581Z,12.89
2022-09-16T05:01:23.583Z,12.92
2022-09-16T05:02:23.541Z,12.93
2022-09-16T05:03:23.571Z,12.93
2022-09-16T05:04:23.503Z,12.95
2022-09-16T05:05:23.501Z,12.99
2022-09-16T05:06:23.481Z,12.99
2022-09-16T05:07:23.492Z,13.00
2022-09-16T05:08:23.461Z,12.97
2022-09-16T05:09:23.450Z,12.97
2022-09-16T05:10:23.434Z,12.97
2022-09-16T05:11:23.412Z,12.97
2022-09-16T05:12:23.397Z,12.97
2022-09-16T05:13:23.425Z,12.95
2022-09-16T05:14:23.374Z,12.95
2022-09-16T05:15:23.380Z,12.93
2022-09-16T05:16:23.411Z,12.96
2022-09-16T05:17:46.972Z,12.93
2022-09-16T05:18:24.334Z,12.96
2022-09-16T05:19:23.303Z,12.95
2022-09-16T05:20:23.323Z,12.96
2022-09-16T05:21:23.264Z,12.95
2022-09-16T05:22:23.276Z,12.96
2022-09-16T05:23:24.262Z,12.93
2022-09-16T05:24:23.258Z,12.95
2022-09-16T05:25:23.234Z,12.93
2022-09-16T05:26:23.224Z,12.95
2022-09-16T05:27:23.208Z,12.96
2022-09-16T05:28:24.197Z,12.96
2022-09-16T05:29:23.209Z,12.95
2022-09-16T05:30:26.061Z,12.96
2022-09-16T05:31:23.222Z,12.97
2022-09-16T05:32:23.149Z,13.00
2022-09-16T05:33:23.128Z,13.03
2022-09-16T05:34:23.138Z,13.07
2022-09-16T05:35:23.097Z,13.09
2022-09-16T05:36:23.108Z,13.14
2022-09-16T05:37:23.075Z,13.11
2022-09-16T05:38:23.085Z,13.09
2022-09-16T05:39:24.636Z,13.09
2022-09-16T05:40:23.147Z,13.12
2022-09-16T05:41:23.044Z,13.12
2022-09-16T05:42:23.019Z,13.14
2022-09-16T05:43:22.988Z,13.15
2022-09-16T05:44:23.006Z,13.18
2022-09-16T05:45:26.692Z,13.20
2022-09-16T05:46:24.089Z,13.22
2022-09-16T05:47:22.939Z,13.22
2022-09-16T05:48:22.938Z,13.25
2022-09-16T05:49:22.919Z,13.27
2022-09-16T05:50:22.918Z,13.24
2022-09-16T05:51:22.899Z,13.25
2022-09-16T05:52:22.879Z,13.27
2022-09-16T05:53:22.869Z,13.25
2022-09-16T05:54:22.889Z,13.27
2022-09-16T05:55:22.847Z,13.27
2022-09-16T05:56:22.850Z,13.27
2022-09-16T05:57:22.819Z,13.29
2022-09-16T05:58:22.809Z,13.29
2022-09-16T05:59:22.801Z,13.30
2022-09-16T06:00:22.779Z,13.30
2022-09-16T06:01:22.814Z,13.32
2022-09-16T06:02:22.800Z,13.33
2022-09-16T06:03:22.739Z,13.33
2022-09-16T06:04:22.742Z,13.33
2022-09-16T06:05:22.706Z,13.36
2022-09-16T06:06:22.717Z,13.33
2022-09-16T06:07:22.704Z,13.36
2022-09-16T06:08:22.714Z,13.37
2022-09-16T06:09:22.667Z,13.38
2022-09-16T06:10:22.674Z,13.41
2022-09-16T06:11:22.651Z,13.43
2022-09-16T06:12:22.620Z,13.46
2022-09-16T06:13:22.636Z,13.52
2022-09-16T06:14:22.602Z,13.55
2022-09-16T06:15:22.608Z,13.55
2022-09-16T06:16:22.606Z,13.56
2022-09-16T06:17:22.563Z,13.58
2022-09-16T06:18:22.545Z,13.63
2022-09-16T06:19:22.545Z,13.69
2022-09-16T06:20:22.520Z,13.69
2022-09-16T06:21:22.505Z,13.61
2022-09-16T06:22:22.513Z,13.58
2022-09-16T06:23:22.476Z,13.61
2022-09-16T06:24:23.497Z,13.62
2022-09-16T06:25:23.444Z,13.67
2022-09-16T06:26:22.452Z,13.67
2022-09-16T06:27:22.419Z,13.65
2022-09-16T06:28:22.442Z,13.62
2022-09-16T06:29:22.397Z,13.59
2022-09-16T06:30:22.413Z,13.59
2022-09-16T06:31:22.418Z,13.59
2022-09-16T06:32:22.386Z,13.62
2022-09-16T06:33:22.380Z,13.63
2022-09-16T06:34:22.359Z,13.67
2022-09-16T06:35:23.317Z,13.67
2022-09-16T06:36:22.332Z,13.69
2022-09-16T06:37:22.280Z,13.63
2022-09-16T06:38:22.290Z,13.63
2022-09-16T06:39:22.260Z,13.65
2022-09-16T06:40:22.356Z,13.62
2022-09-16T06:41:22.238Z,13.63
2022-09-16T06:42:22.239Z,13.69
2022-09-16T06:43:22.248Z,13.69
2022-09-16T06:44:22.210Z,13.70
2022-09-16T06:45:22.190Z,13.73
2022-09-16T06:46:22.235Z,13.71
2022-09-16T06:47:22.172Z,13.70
2022-09-16T06:48:22.151Z,13.67
2022-09-16T06:49:22.151Z,13.69
2022-09-16T06:50:22.130Z,13.69
2022-09-16T06:51:22.102Z,13.67
2022-09-16T06:52:22.102Z,13.73
2022-09-16T06:53:22.091Z,13.80
2022-09-16T06:54:22.083Z,13.87
2022-09-16T06:55:22.082Z,13.87
2022-09-16T06:56:22.075Z,13.83
2022-09-16T06:57:22.041Z,13.80
2022-09-16T06:58:22.047Z,13.77
2022-09-16T06:59:22.004Z,13.77
2022-09-16T07:00:22.014Z,13.80
2022-09-16T07:01:23.081Z,13.84
2022-09-16T07:02:22.069Z,13.89
2022-09-16T07:03:21.973Z,13.89
2022-09-16T07:04:21.963Z,13.89
2022-09-16T07:05:21.961Z,13.88
2022-09-16T07:06:21.924Z,13.89
2022-09-16T07:07:21.914Z,13.89
2022-09-16T07:08:21.891Z,13.91
2022-09-16T07:09:21.878Z,13.94
2022-09-16T07:10:21.876Z,13.96
2022-09-16T07:11:21.856Z,13.91
2022-09-16T07:12:21.847Z,13.88
2022-09-16T07:13:21.819Z,13.84
2022-09-16T07:14:21.826Z,13.83
2022-09-16T07:15:21.805Z,13.77
2022-09-16T07:16:21.864Z,13.74
2022-09-16T07:17:21.786Z,13.77
2022-09-16T07:18:21.775Z,13.76
2022-09-16T07:19:21.750Z,13.77
2022-09-16T07:20:21.745Z,13.80
2022-09-16T07:21:21.715Z,13.89
2022-09-16T07:22:22.724Z,13.98
2022-09-16T07:23:21.698Z,13.98
2022-09-16T07:24:21.706Z,14.04
2022-09-16T07:25:21.698Z,14.09
2022-09-16T07:26:21.667Z,14.14
2022-09-16T07:27:21.659Z,14.14
2022-09-16T07:28:21.665Z,14.09
2022-09-16T07:29:21.638Z,14.09
2022-09-16T07:30:21.628Z,14.09
2022-09-16T07:31:21.691Z,14.14
2022-09-16T07:32:21.579Z,14.21
2022-09-16T07:33:21.566Z,14.31
2022-09-16T07:34:21.572Z,14.38
2022-09-16T07:35:21.578Z,14.43
2022-09-16T07:36:21.528Z,14.46
2022-09-16T07:37:21.500Z,14.52
2022-09-16T07:38:21.491Z,14.62
2022-09-16T07:39:21.507Z,14.74
2022-09-16T07:40:21.572Z,14.80
2022-09-16T07:41:21.469Z,14.75
2022-09-16T07:42:21.461Z,14.68
2022-09-16T07:43:21.439Z,14.69
2022-09-16T07:44:21.430Z,14.69
2022-09-16T07:45:21.438Z,14.68
2022-09-16T07:46:21.465Z,14.71
2022-09-16T07:47:22.396Z,14.80
2022-09-16T07:48:21.392Z,14.87
2022-09-16T07:49:21.362Z,14.93
2022-09-16T07:50:21.351Z,14.98
2022-09-16T07:51:21.334Z,14.86
2022-09-16T07:52:21.327Z,14.71
2022-09-16T07:53:21.686Z,14.68
2022-09-16T07:54:21.294Z,14.64
2022-09-16T07:55:21.302Z,14.68
2022-09-16T07:56:21.265Z,14.72
2022-09-16T07:57:21.265Z,14.67
2022-09-16T07:58:21.250Z,14.60
2022-09-16T07:59:21.226Z,14.57
2022-09-16T08:00:21.216Z,14.57
2022-09-16T08:01:21.268Z,14.54
2022-09-16T08:02:21.341Z,14.53
2022-09-16T08:03:21.185Z,14.53
2022-09-16T08:04:21.195Z,14.60
2022-09-16T08:05:21.175Z,14.65
2022-09-16T08:06:21.116Z,14.75
2022-09-16T08:07:21.155Z,14.83
2022-09-16T08:08:21.113Z,14.88
2022-09-16T08:10:22.172Z,14.95
2022-09-16T08:11:21.087Z,14.98
2022-09-16T08:12:21.060Z,14.94
2022-09-16T08:13:22.037Z,14.98
2022-09-16T08:14:21.047Z,15.02
2022-09-16T08:15:22.053Z,15.06
2022-09-16T08:16:21.071Z,14.94
2022-09-16T08:17:20.999Z,14.84
2022-09-16T08:18:21.973Z,14.71
2022-09-16T08:19:20.978Z,14.78
2022-09-16T08:20:21.038Z,14.68
2022-09-16T08:21:20.947Z,14.65
2022-09-16T08:22:20.920Z,14.67
2022-09-16T08:23:20.918Z,14.84
2022-09-16T08:24:20.901Z,14.98
2022-09-16T08:25:20.909Z,15.06
2022-09-16T08:26:20.870Z,15.09
2022-09-16T08:27:20.878Z,15.09
2022-09-16T08:28:20.849Z,15.05
2022-09-16T08:29:20.842Z,15.08
2022-09-16T08:30:20.861Z,15.08
2022-09-16T08:31:20.836Z,15.11
2022-09-16T08:32:20.804Z,15.11
2022-09-16T08:33:20.782Z,15.02
2022-09-16T08:34:20.802Z,14.88
2022-09-16T08:35:20.752Z,14.71
2022-09-16T08:36:20.720Z,14.68
2022-09-16T08:37:20.731Z,14.78
2022-09-16T08:38:20.703Z,14.81
2022-09-16T08:39:20.726Z,14.80
2022-09-16T08:41:20.696Z,14.69
2022-09-16T08:42:23.282Z,14.71
2022-09-16T08:43:20.645Z,14.75
2022-09-16T08:44:21.633Z,14.81
2022-09-16T08:45:20.624Z,14.90
2022-09-16T08:46:20.614Z,14.94
2022-09-16T08:47:20.610Z,14.99
2022-09-16T08:48:21.571Z,15.12
2022-09-16T08:49:21.566Z,15.23
2022-09-16T08:50:20.610Z,15.24
2022-09-16T08:51:20.565Z,15.20
2022-09-16T08:52:20.543Z,15.12
2022-09-16T08:53:20.515Z,15.08
2022-09-16T08:54:21.495Z,14.99
2022-09-16T08:55:20.517Z,14.95
2022-09-16T08:56:20.492Z,14.94
2022-09-16T08:57:20.473Z,15.05
2022-09-16T08:58:20.428Z,15.05
2022-09-16T08:59:21.440Z,14.99
2022-09-16T09:00:20.548Z,15.05
2022-09-16T09:01:20.513Z,15.02
2022-09-16T09:02:20.831Z,14.91
2022-09-16T09:03:20.374Z,14.87
2022-09-16T09:04:21.359Z,14.83
2022-09-16T09:05:20.378Z,14.78
2022-09-16T09:06:20.350Z,14.78
2022-09-16T09:07:20.337Z,14.86
2022-09-16T09:08:20.350Z,14.87
2022-09-16T09:09:21.290Z,14.88
2022-09-16T09:10:20.318Z,14.90
2022-09-16T09:11:20.281Z,14.87
2022-09-16T09:12:21.089Z,14.90
2022-09-16T09:13:21.311Z,14.91
2022-09-16T09:14:20.248Z,14.95
2022-09-16T09:15:22.822Z,15.01
2022-09-16T09:16:20.238Z,15.03
2022-09-16T09:17:20.219Z,15.03
2022-09-16T09:18:20.202Z,15.05
2022-09-16T09:19:20.182Z,14.99
2022-09-16T09:20:20.223Z,14.99
2022-09-16T09:21:20.142Z,14.98
2022-09-16T09:22:20.143Z,14.94
2022-09-16T09:23:20.105Z,14.94
2022-09-16T09:24:20.093Z,14.95
2022-09-16T09:25:20.112Z,15.02
2022-09-16T09:26:20.062Z,15.09
2022-09-16T09:27:20.088Z,15.08
2022-09-16T09:28:20.041Z,14.95
2022-09-16T09:29:20.035Z,14.98
2022-09-16T09:30:20.025Z,14.99
2022-09-16T09:31:20.045Z,14.94
2022-09-16T09:32:20.017Z,14.91
2022-09-16T09:33:44.347Z,14.87
2022-09-16T09:34:20.973Z,14.84
2022-09-16T09:35:19.982Z,14.86
2022-09-16T09:36:19.947Z,14.90
2022-09-16T09:37:20.927Z,14.91
2022-09-16T09:38:19.926Z,14.91
2022-09-16T09:39:19.897Z,14.98
2022-09-16T09:40:20.894Z,14.99
2022-09-16T09:41:19.867Z,14.95
2022-09-16T09:42:19.863Z,14.99
2022-09-16T09:43:19.848Z,14.93
2022-09-16T09:44:19.831Z,14.86
2022-09-16T09:45:19.863Z,14.83
2022-09-16T09:46:19.826Z,14.84
2022-09-16T09:47:19.808Z,14.86
2022-09-16T10:03:52.095Z,14.88
2022-09-16T10:04:52.073Z,14.90
2022-09-16T10:05:52.065Z,14.95
2022-09-16T10:06:52.132Z,15.03
2022-09-16T10:07:52.127Z,15.08
2022-09-16T10:08:52.035Z,15.09
2022-09-16T10:09:52.027Z,15.06
2022-09-16T10:10:52.031Z,15.01
2022-09-16T10:11:52.007Z,14.91
2022-09-16T10:12:51.939Z,14.95
2022-09-16T10:13:51.956Z,15.01
2022-09-16T10:14:51.937Z,15.01
2022-09-16T10:15:54.871Z,15.11
2022-09-16T10:16:51.907Z,15.05
2022-09-16T10:17:51.909Z,15.06
2022-09-16T10:18:52.901Z,15.06
2022-09-16T10:19:51.869Z,15.05
2022-09-16T10:20:51.909Z,15.03
2022-09-16T10:21:51.864Z,15.11
2022-09-16T10:22:51.833Z,15.23
2022-09-16T10:23:51.823Z,15.41
2022-09-16T10:24:51.819Z,15.49
2022-09-16T10:25:51.809Z,15.59
2022-09-16T10:26:51.778Z,15.63
2022-09-16T10:27:51.791Z,15.61
2022-09-16T10:28:51.770Z,15.59
2022-09-16T10:29:51.788Z,15.57
2022-09-16T10:30:51.749Z,15.59
2022-09-16T10:31:51.798Z,15.51
2022-09-16T10:32:51.713Z,15.46
2022-09-16T10:33:52.680Z,15.36
2022-09-16T10:34:51.686Z,15.39
2022-09-16T10:35:51.671Z,15.41
2022-09-16T10:36:51.642Z,15.46
2022-09-16T10:37:51.654Z,15.52
2022-09-16T10:38:51.630Z,15.57
2022-09-16T10:39:51.645Z,15.67
2022-09-16T10:40:51.601Z,15.81
2022-09-16T10:41:51.581Z,15.84
2022-09-16T10:42:51.572Z,15.78
2022-09-16T10:43:51.551Z,15.75
2022-09-16T10:44:52.554Z,15.72
2022-09-16T10:45:51.567Z,15.67
2022-09-16T10:46:51.542Z,15.60
2022-09-16T10:47:51.511Z,15.59
2022-09-16T10:48:51.502Z,15.51
2022-09-16T10:49:51.494Z,15.49
2022-09-16T10:50:51.476Z,15.45
2022-09-16T10:51:51.455Z,15.45
2022-09-16T10:52:51.436Z,15.36
2022-09-16T10:53:51.838Z,15.36
2022-09-16T10:54:51.408Z,15.36
2022-09-16T10:55:51.397Z,15.35
2022-09-16T10:56:51.655Z,15.38
2022-09-16T10:57:51.376Z,15.41
2022-09-16T10:58:51.381Z,15.38
2022-09-16T10:59:53.356Z,15.26
2022-09-16T11:00:51.385Z,15.17
2022-09-16T11:01:51.618Z,15.19
2022-09-16T11:02:51.309Z,15.21
2022-09-16T11:03:51.309Z,15.17
2022-09-16T11:04:51.276Z,15.19
2022-09-16T11:05:51.267Z,15.23
2022-09-16T11:06:51.267Z,15.27
2022-09-16T11:07:51.267Z,15.26
2022-09-16T11:08:51.270Z,15.21
2022-09-16T11:09:51.338Z,15.12
2022-09-16T11:10:52.225Z,15.13
2022-09-16T11:11:51.192Z,15.12
2022-09-16T11:12:51.199Z,15.12
2022-09-16T11:13:51.259Z,15.13
2022-09-16T11:14:52.179Z,15.05
2022-09-16T11:15:51.233Z,14.99
2022-09-16T11:16:51.168Z,14.98
2022-09-16T11:17:51.171Z,14.99
2022-09-16T11:18:52.973Z,15.03
2022-09-16T11:19:52.133Z,15.08
2022-09-16T11:20:51.120Z,15.06
2022-09-16T11:21:51.100Z,15.08
2022-09-16T11:22:51.100Z,15.11
2022-09-16T11:23:51.040Z,15.11
2022-09-16T11:24:51.121Z,15.09
2022-09-16T11:25:51.060Z,15.09
2022-09-16T11:26:52.056Z,15.03
2022-09-16T11:27:51.051Z,15.01
2022-09-16T11:28:50.973Z,14.95
2022-09-16T11:29:51.053Z,14.95
2022-09-16T11:30:54.392Z,14.98
2022-09-16T11:31:51.165Z,14.93
2022-09-16T11:33:12.124Z,14.95
2022-09-16T11:33:51.174Z,15.02
2022-09-16T11:34:51.451Z,15.01
2022-09-16T11:35:51.387Z,15.06
2022-09-16T11:37:13.602Z,15.09
2022-09-16T11:37:53.423Z,15.11
2022-09-16T11:38:51.005Z,15.15
2022-09-16T11:39:50.914Z,15.24
2022-09-16T11:40:52.624Z,15.35
2022-09-16T11:41:53.040Z,15.41
2022-09-16T11:42:51.331Z,15.46
2022-09-16T11:43:50.781Z,15.43
2022-09-16T11:44:50.782Z,15.45
2022-09-16T11:45:50.785Z,15.52
2022-09-16T11:46:50.957Z,15.74
2022-09-16T11:47:50.748Z,15.88
2022-09-16T11:48:50.754Z,15.92
2022-09-16T11:49:50.686Z,15.78
2022-09-16T11:50:50.730Z,15.70
2022-09-16T11:51:50.800Z,15.61
2022-09-16T11:52:51.111Z,15.57
2022-09-16T11:53:50.635Z,15.52
2022-09-16T11:54:50.708Z,15.54
2022-09-16T11:55:50.802Z,15.63
2022-09-16T11:56:50.727Z,15.61
2022-09-16T11:57:50.639Z,15.59
2022-09-16T11:58:50.641Z,15.61
2022-09-16T11:59:50.588Z,15.66
2022-09-16T12:00:50.710Z,15.68
2022-09-16T12:01:50.647Z,15.88
2022-09-16T12:02:50.571Z,16.23
2022-09-16T12:03:50.518Z,16.45
2022-09-16T12:04:52.584Z,16.52
2022-09-16T12:05:50.510Z,16.42
2022-09-16T12:06:50.601Z,16.60
2022-09-16T12:07:50.490Z,16.86
2022-09-16T12:08:50.452Z,17.18
2022-09-16T12:09:50.502Z,17.54
2022-09-16T12:10:50.441Z,17.40
2022-09-16T12:11:50.411Z,17.30
2022-09-16T12:12:50.438Z,17.17
2022-09-16T12:13:52.038Z,16.92
2022-09-16T12:14:50.451Z,16.63
2022-09-16T12:15:50.461Z,16.65
2022-09-16T12:16:50.371Z,16.68
2022-09-16T12:17:50.363Z,16.70
2022-09-16T12:18:50.371Z,17.29
2022-09-16T12:19:50.380Z,18.19
2022-09-16T12:20:51.346Z,19.11
2022-09-16T12:21:51.088Z,18.91
2022-09-16T12:22:51.304Z,18.57
2022-09-16T12:23:50.291Z,18.40
2022-09-16T12:24:50.317Z,18.13
2022-09-16T12:25:50.357Z,17.92
2022-09-16T12:26:51.228Z,17.64
2022-09-16T12:27:50.230Z,17.15
2022-09-16T12:28:50.235Z,17.17
2022-09-16T12:29:50.247Z,18.22
2022-09-16T12:30:50.354Z,19.84
2022-09-16T12:31:50.357Z,19.95
2022-09-16T12:32:50.157Z,19.66
2022-09-16T12:33:50.166Z,19.11
2022-09-16T12:34:50.483Z,18.46
2022-09-16T12:35:50.223Z,18.17
2022-09-16T12:36:50.197Z,17.74
2022-09-16T12:37:50.196Z,17.41
2022-09-16T12:38:50.083Z,17.32
2022-09-16T12:39:50.169Z,17.17
2022-09-16T12:40:50.151Z,16.85
2022-09-16T12:41:50.107Z,16.68
2022-09-16T12:42:52.104Z,16.58
2022-09-16T12:43:50.022Z,16.48
2022-09-16T12:45:12.049Z,16.37
2022-09-16T12:45:49.985Z,16.22
2022-09-16T12:46:52.048Z,16.20
2022-09-16T12:47:50.049Z,16.14
2022-09-16T12:48:49.941Z,15.99
2022-09-16T12:50:11.988Z,15.86
2022-09-16T12:50:49.960Z,15.82
2022-09-16T12:51:50.667Z,15.70
2022-09-16T12:52:49.991Z,15.67
2022-09-16T12:53:49.881Z,15.67
2022-09-16T12:55:06.693Z,15.75
2022-09-16T12:55:51.873Z,15.74
2022-09-16T12:56:49.849Z,15.61
2022-09-16T12:57:49.829Z,15.57
2022-09-16T12:58:49.948Z,15.51
2022-09-16T12:59:49.794Z,15.42
2022-09-16T13:00:49.880Z,15.45
2022-09-16T13:01:49.981Z,15.42
2022-09-16T13:02:49.911Z,15.43
2022-09-16T13:03:49.906Z,15.42
2022-09-16T13:04:49.756Z,15.43
2022-09-16T13:05:49.725Z,15.46
2022-09-16T13:06:51.747Z,15.49
2022-09-16T13:07:49.787Z,15.61
2022-09-16T13:08:49.700Z,15.72
2022-09-16T13:09:49.682Z,15.84
2022-09-16T13:11:12.112Z,15.92
2022-09-16T13:12:50.638Z,16.00
2022-09-16T13:13:49.708Z,16.16
2022-09-16T13:14:49.627Z,17.40
2022-09-16T13:15:49.703Z,17.69
2022-09-16T13:16:49.651Z,17.91
2022-09-16T13:17:49.662Z,19.20
2022-09-16T13:18:49.648Z,20.16
2022-09-16T13:19:49.563Z,21.02
2022-09-16T13:20:49.527Z,20.33
2022-09-16T13:21:49.535Z,20.43
2022-09-16T13:22:50.600Z,19.70
2022-09-16T13:23:49.470Z,20.13
2022-09-16T13:24:49.480Z,19.48